Time;durP1;ratioP1;P1;durP2;ratioP2;P2;SDS_P1;SDS_P2;PMS_P1;PMS_P2;Temp;Humidity;BMP_temperature;BMP_pressure;BME280_temperature;BME280_humidity;BME280_pressure;Samples;Min_cycle;Max_cycle;Signal;HPM_P1;HPM_P2
2020/12/12 00:00:12;;;;;;;5.72;2.55;;;11.10;61.60;;;;;;20861807;28;20040;-71
2020/12/12 00:10:12;;;;;;;2.83;1.30;;;11.10;61.60;;;;;;20826540;28;20038;-68
2020/12/12 00:20:13;;;;;;;6.68;1.25;;;11.00;61.50;;;;;;20859615;28;20034;-69
2020/12/12 00:30:13;;;;;;;3.83;1.38;;;11.00;61.50;;;;;;20836579;28;20072;-68
2020/12/12 00:40:14;;;;;;;2.05;1.00;;;11.00;61.50;;;;;;20837447;28;20029;-69
2020/12/12 00:50:15;;;;;;;2.83;1.70;;;11.00;61.50;;;;;;20838374;28;20041;-69
2020/12/12 01:00:15;;;;;;;4.53;1.88;;;11.00;61.50;;;;;;20840156;28;20175;-72
2020/12/12 01:10:16;;;;;;;3.10;1.05;;;11.00;61.50;;;;;;20826225;28;20570;-69
2020/12/12 01:20:16;;;;;;;5.32;1.30;;;11.00;61.50;;;;;;20847777;28;20033;-69
2020/12/12 01:30:17;;;;;;;1.95;1.10;;;11.00;61.50;;;;;;20837401;28;20118;-68
2020/12/12 01:40:18;;;;;;;1.15;0.77;;;11.00;61.60;;;;;;20849873;28;20033;-68
2020/12/12 01:50:18;;;;;;;1.08;0.77;;;11.00;61.60;;;;;;20829905;28;20091;-68
2020/12/12 02:00:20;;;;;;;3.33;1.92;;;11.00;61.60;;;;;;20810651;28;20043;-70
2020/12/12 02:10:24;;;;;;;2.67;1.48;;;11.00;61.60;;;;;;20837084;28;20065;-69
2020/12/12 02:20:24;;;;;;;4.10;1.35;;;11.00;61.60;;;;;;20819725;28;20061;-68
2020/12/12 02:30:25;;;;;;;2.92;1.55;;;11.00;61.60;;;;;;20824720;28;20480;-70
2020/12/12 02:40:26;;;;;;;3.13;1.27;;;11.00;61.60;;;;;;20863220;28;20078;-69
2020/12/12 02:50:27;;;;;;;2.22;1.15;;;11.00;61.60;;;;;;20837160;28;20033;-71
2020/12/12 03:00:29;;;;;;;3.88;1.95;;;10.90;61.50;;;;;;20847717;28;20583;-68
2020/12/12 03:10:29;;;;;;;1.92;0.77;;;10.90;61.50;;;;;;20825594;28;20053;-69
2020/12/12 03:20:30;;;;;;;3.20;1.45;;;11.00;61.70;;;;;;20858785;28;20360;-68
2020/12/12 03:30:31;;;;;;;3.60;1.70;;;10.90;61.50;;;;;;20855068;28;20132;-69
2020/12/12 03:40:31;;;;;;;3.15;1.00;;;10.90;61.60;;;;;;20851242;28;20041;-68
2020/12/12 03:50:32;;;;;;;2.58;1.67;;;10.90;61.60;;;;;;20837514;28;20044;-69
2020/12/12 04:00:32;;;;;;;1.70;0.93;;;10.90;61.60;;;;;;20820407;28;20132;-70
2020/12/12 04:10:33;;;;;;;2.33;1.52;;;10.90;61.60;;;;;;20845688;28;20045;-69
2020/12/12 04:20:34;;;;;;;2.63;1.48;;;11.00;61.60;;;;;;20852765;28;20050;-69
2020/12/12 04:30:34;;;;;;;2.60;1.67;;;10.90;61.60;;;;;;20857594;28;20029;-68
2020/12/12 04:40:35;;;;;;;5.00;1.10;;;10.90;61.60;;;;;;20853343;28;20128;-68
2020/12/12 04:50:35;;;;;;;4.20;1.02;;;10.90;61.70;;;;;;20852982;28;20037;-70
2020/12/12 05:00:36;;;;;;;3.85;1.35;;;10.90;61.70;;;;;;20846346;28;20546;-69
2020/12/12 05:10:42;;;;;;;5.47;2.15;;;10.90;61.70;;;;;;20841501;28;20040;-69
2020/12/12 05:20:43;;;;;;;5.00;1.55;;;10.90;61.90;;;;;;20817596;28;20042;-69
2020/12/12 05:30:45;;;;;;;3.37;1.50;;;11.10;61.80;;;;;;20823149;28;20044;-68
2020/12/12 05:40:49;;;;;;;2.00;1.40;;;11.20;61.60;;;;;;20835241;28;20292;-69
2020/12/12 05:50:50;;;;;;;2.42;1.58;;;11.40;61.20;;;;;;20832530;28;20080;-68
2020/12/12 06:00:51;;;;;;;2.80;1.23;;;11.60;60.60;;;;;;20822733;28;20029;-69
2020/12/12 06:10:52;;;;;;;3.72;1.60;;;11.80;60.10;;;;;;20838028;28;20467;-70
2020/12/12 06:20:53;;;;;;;6.25;1.60;;;11.90;59.70;;;;;;20846585;28;20033;-69
2020/12/12 06:30:55;;;;;;;2.45;1.30;;;11.90;59.30;;;;;;20835542;28;20033;-67
2020/12/12 06:40:58;;;;;;;9.95;1.83;;;12.00;59.00;;;;;;20835433;28;20033;-69
2020/12/12 06:51:01;;;;;;;1.98;0.85;;;11.90;58.90;;;;;;20835413;28;20057;-73
2020/12/12 07:01:27;;;;;;;5.28;2.63;;;11.70;58.70;;;;;;20846169;28;20045;-74
2020/12/12 07:11:28;;;;;;;3.28;1.88;;;11.60;59.00;;;;;;20855118;28;20064;-72
2020/12/12 07:21:30;;;;;;;3.20;1.35;;;11.50;59.40;;;;;;20825466;28;20448;-74
2020/12/12 07:31:31;;;;;;;2.67;1.58;;;11.40;59.80;;;;;;20850010;28;20459;-69
2020/12/12 07:41:31;;;;;;;5.85;1.25;;;11.30;60.10;;;;;;20836897;28;20056;-69
2020/12/12 07:51:32;;;;;;;2.08;0.77;;;11.30;60.40;;;;;;20856747;28;20080;-72
2020/12/12 08:01:32;;;;;;;3.72;1.60;;;11.20;60.50;;;;;;20849353;28;20161;-70
2020/12/12 08:11:33;;;;;;;1.63;0.95;;;11.20;60.60;;;;;;20855318;28;20092;-74
2020/12/12 08:21:35;;;;;;;1.73;1.05;;;11.20;60.80;;;;;;20870044;28;20402;-74
2020/12/12 08:31:37;;;;;;;1.65;1.05;;;11.30;60.90;;;;;;20833231;28;20296;-74
2020/12/12 08:41:39;;;;;;;2.97;1.60;;;11.20;60.80;;;;;;20830206;28;20034;-72
2020/12/12 08:51:40;;;;;;;2.33;1.42;;;11.20;61.00;;;;;;20854315;28;20128;-74
2020/12/12 09:12:05;;;;;;;2.83;1.20;;;11.20;60.90;;;;;;20773523;23;20488;-74
2020/12/12 09:22:07;;;;;;;1.52;0.88;;;11.30;61.10;;;;;;20747245;28;20471;-72
2020/12/12 09:32:07;;;;;;;2.45;1.02;;;11.30;60.90;;;;;;20722303;28;20392;-76
2020/12/12 09:42:08;;;;;;;1.48;0.80;;;11.30;61.10;;;;;;20742132;28;20040;-73
2020/12/12 09:52:09;;;;;;;2.33;0.97;;;11.30;61.00;;;;;;20739766;28;20396;-72
2020/12/12 10:02:10;;;;;;;1.85;0.98;;;11.20;61.00;;;;;;20727226;28;20292;-71
2020/12/12 10:12:10;;;;;;;2.95;1.20;;;11.30;61.00;;;;;;20747560;28;20488;-72
2020/12/12 10:22:11;;;;;;;3.45;1.67;;;11.30;61.40;;;;;;20747705;28;20080;-72
2020/12/12 10:32:11;;;;;;;1.83;1.48;;;11.50;61.30;;;;;;20772871;28;20044;-72
2020/12/12 10:42:12;;;;;;;2.13;1.73;;;11.80;60.90;;;;;;20743636;28;20033;-71
2020/12/12 10:52:13;;;;;;;4.50;1.92;;;12.00;60.30;;;;;;20757546;28;20301;-74
2020/12/12 11:02:13;;;;;;;3.65;1.50;;;12.10;59.40;;;;;;20761501;28;20080;-75
2020/12/12 11:12:14;;;;;;;6.00;1.52;;;12.00;59.00;;;;;;20777084;28;20164;-72
2020/12/12 11:22:14;;;;;;;2.42;1.45;;;11.90;59.10;;;;;;20754453;28;20250;-74
2020/12/12 11:32:15;;;;;;;3.00;1.63;;;11.80;59.30;;;;;;20780311;28;20495;-74
2020/12/12 11:52:36;;;;;;;5.05;1.30;;;11.60;59.90;;;;;;20746659;28;20762;-76
2020/12/12 12:02:37;;;;;;;5.78;1.98;;;11.50;60.20;;;;;;20732805;28;20067;-75
2020/12/12 12:12:38;;;;;;;3.72;2.30;;;11.50;60.50;;;;;;20729099;28;20069;-74
2020/12/12 12:22:38;;;;;;;3.78;1.33;;;11.40;60.50;;;;;;20739241;28;20033;-74
2020/12/12 12:32:39;;;;;;;1.88;1.40;;;11.40;60.80;;;;;;20754189;28;20038;-74
2020/12/12 12:42:39;;;;;;;3.78;1.77;;;11.40;60.90;;;;;;20770380;28;20455;-75
2020/12/12 12:52:40;;;;;;;2.72;1.30;;;11.40;61.10;;;;;;20756252;28;20049;-75
2020/12/12 13:02:40;;;;;;;6.30;1.50;;;11.30;61.80;;;;;;20769155;28;20384;-76
2020/12/12 13:12:41;;;;;;;3.70;1.17;;;11.30;61.10;;;;;;20739693;28;20602;-77
2020/12/12 13:22:42;;;;;;;3.00;1.13;;;11.40;61.20;;;;;;20758453;28;20080;-79
2020/12/12 13:32:44;;;;;;;0.88;0.65;;;11.40;61.30;;;;;;20745108;28;20057;-77
2020/12/12 13:42:44;;;;;;;2.53;1.52;;;11.30;61.20;;;;;;20754306;28;20288;-77
2020/12/12 13:52:46;;;;;;;1.38;0.90;;;11.40;61.30;;;;;;20737441;28;20060;-78
2020/12/12 14:02:47;;;;;;;1.77;1.35;;;11.30;61.30;;;;;;20728154;28;20042;-73
2020/12/12 14:23:09;;;;;;;1.77;0.77;;;11.40;61.70;;;;;;20740626;28;20037;-75
2020/12/12 14:33:09;;;;;;;3.22;1.45;;;11.50;61.60;;;;;;20741948;28;20405;-74
2020/12/12 14:43:10;;;;;;;3.10;1.25;;;11.80;61.40;;;;;;20762438;28;20030;-75
2020/12/12 14:53:15;;;;;;;2.17;1.00;;;11.90;60.90;;;;;;20730093;28;20045;-76
2020/12/12 15:03:16;;;;;;;1.67;0.68;;;12.00;60.40;;;;;;20788271;28;20095;-76
2020/12/12 15:13:17;;;;;;;1.55;0.98;;;12.00;59.70;;;;;;20763469;28;20112;-73
2020/12/12 15:23:18;;;;;;;1.13;0.73;;;11.90;59.60;;;;;;20791258;28;20034;-77
2020/12/12 15:33:39;;;;;;;1.58;0.98;;;11.80;59.70;;;;;;20748403;28;20033;-77
2020/12/12 15:43:40;;;;;;;2.72;1.27;;;11.60;60.00;;;;;;20772127;28;20495;-77
2020/12/12 15:53:41;;;;;;;1.55;1.08;;;11.60;60.40;;;;;;20751786;28;20468;-77
2020/12/12 16:03:42;;;;;;;1.25;0.75;;;11.50;60.60;;;;;;20755909;28;20041;-77
2020/12/12 16:13:42;;;;;;;2.30;1.10;;;11.40;60.90;;;;;;20757982;28;20037;-77
2020/12/12 16:23:43;;;;;;;0.73;0.68;;;11.40;61.00;;;;;;20761708;28;20128;-77
2020/12/12 16:33:43;;;;;;;1.05;0.95;;;11.40;61.20;;;;;;20771852;28;20041;-76
2020/12/12 16:43:44;;;;;;;1.75;0.82;;;11.40;61.20;;;;;;20773332;28;20062;-76
2020/12/12 16:53:45;;;;;;;2.42;1.13;;;11.40;61.40;;;;;;20743917;28;20113;-73
2020/12/12 17:03:45;;;;;;;2.13;0.88;;;11.30;61.50;;;;;;20758988;28;20076;-71
2020/12/12 17:13:46;;;;;;;1.83;0.85;;;11.30;61.50;;;;;;20782420;28;20790;-74
2020/12/12 17:23:46;;;;;;;1.85;0.73;;;11.30;61.50;;;;;;20723857;28;20128;-76
2020/12/12 17:33:47;;;;;;;0.95;0.80;;;11.30;61.60;;;;;;20757000;28;20029;-76
2020/12/12 17:43:48;;;;;;;2.22;0.82;;;11.30;61.60;;;;;;20738475;28;20168;-77
2020/12/12 17:53:51;;;;;;;1.25;0.82;;;11.30;61.60;;;;;;20743491;28;20373;-73
2020/12/12 18:03:51;;;;;;;1.13;0.63;;;11.30;61.70;;;;;;20751932;28;20381;-74
2020/12/12 18:13:52;;;;;;;2.20;0.85;;;11.30;61.80;;;;;;20740962;28;20030;-75
2020/12/12 18:23:53;;;;;;;2.38;0.80;;;11.20;61.80;;;;;;20736653;28;20029;-76
2020/12/12 18:33:53;;;;;;;2.97;1.20;;;11.20;61.90;;;;;;20728418;28;20092;-76
2020/12/12 18:43:54;;;;;;;0.77;0.50;;;11.20;61.90;;;;;;20763764;28;20375;-75
2020/12/12 18:53:55;;;;;;;4.17;1.13;;;11.20;61.90;;;;;;20762691;28;20037;-75
2020/12/12 19:03:55;;;;;;;0.75;0.75;;;11.20;61.90;;;;;;20775746;28;20303;-75
2020/12/12 19:13:56;;;;;;;0.98;0.77;;;11.20;61.90;;;;;;20734044;28;20064;-74
2020/12/12 19:23:57;;;;;;;2.63;1.10;;;11.20;62.00;;;;;;20765346;28;20502;-78
2020/12/12 19:34:03;;;;;;;1.08;0.93;;;11.20;62.00;;;;;;20777497;28;20269;-77
2020/12/12 19:44:04;;;;;;;3.87;1.00;;;11.20;62.10;;;;;;20731194;28;20415;-78
2020/12/12 19:54:05;;;;;;;2.57;1.27;;;11.20;62.10;;;;;;20743018;28;20084;-78
2020/12/12 20:04:06;;;;;;;1.48;1.00;;;11.20;62.10;;;;;;20730701;28;20306;-77
2020/12/12 20:14:08;;;;;;;1.50;0.88;;;11.10;62.00;;;;;;20786537;28;20042;-78
2020/12/12 20:24:09;;;;;;;2.75;1.00;;;11.10;62.10;;;;;;20780448;28;20033;-78
2020/12/12 20:34:09;;;;;;;2.33;1.02;;;11.10;62.10;;;;;;20770983;28;20380;-77
2020/12/12 20:44:10;;;;;;;2.47;1.35;;;11.10;62.10;;;;;;20756653;28;20045;-78
2020/12/12 20:54:11;;;;;;;1.35;1.05;;;11.10;62.20;;;;;;20744049;28;20080;-77
2020/12/12 21:04:11;;;;;;;1.05;0.52;;;11.20;62.20;;;;;;20734512;28;20041;-79
2020/12/12 21:14:13;;;;;;;2.25;1.17;;;11.10;62.10;;;;;;20737930;28;20058;-78
2020/12/12 21:24:13;;;;;;;2.63;0.77;;;11.10;62.20;;;;;;20770269;28;20040;-80
2020/12/12 21:34:14;;;;;;;2.85;1.35;;;11.10;62.20;;;;;;20734608;28;20544;-81
2020/12/12 21:44:14;;;;;;;2.10;1.15;;;11.10;62.20;;;;;;20747519;28;20480;-80
2020/12/12 21:54:15;;;;;;;4.53;1.17;;;11.10;62.20;;;;;;20751835;28;20072;-79
2020/12/12 22:04:19;;;;;;;1.80;1.25;;;11.10;62.30;;;;;;20774408;28;20060;-79
2020/12/12 22:14:19;;;;;;;2.25;1.45;;;11.10;62.30;;;;;;20736870;28;20038;-80
2020/12/12 22:24:20;;;;;;;1.75;1.33;;;11.10;62.30;;;;;;20755304;28;20495;-79
2020/12/12 22:34:21;;;;;;;3.00;1.63;;;11.10;62.30;;;;;;20747568;28;20484;-79
2020/12/12 22:44:24;;;;;;;2.10;1.17;;;11.10;62.40;;;;;;20794193;28;20030;-79
2020/12/12 22:54:25;;;;;;;1.38;0.80;;;11.00;62.30;;;;;;20771977;28;20038;-80
2020/12/12 23:04:27;;;;;;;2.42;0.98;;;11.00;62.40;;;;;;20749667;28;20132;-80
2020/12/12 23:14:29;;;;;;;1.83;0.70;;;11.00;62.50;;;;;;20764492;28;20361;-80
2020/12/12 23:24:29;;;;;;;2.35;1.00;;;11.00;62.50;;;;;;20773194;28;20030;-79
2020/12/12 23:34:31;;;;;;;2.22;1.25;;;11.00;62.40;;;;;;20781677;28;20072;-80
2020/12/12 23:44:32;;;;;;;1.80;0.85;;;11.00;62.50;;;;;;20749182;28;20034;-80
2020/12/12 23:54:32;;;;;;;3.72;1.73;;;11.00;62.50;;;;;;20746259;28;20053;-80
